createdAt,value
2019-03-31T00:01:52.581Z,77.00
2019-03-31T00:06:54.572Z,73.50
2019-03-31T00:11:56.665Z,70.00
2019-03-31T00:16:58.674Z,69.80
2019-03-31T00:22:00.737Z,74.33
2019-03-31T00:27:02.745Z,75.50
2019-03-31T00:32:04.801Z,70.63
2019-03-31T00:37:07.766Z,66.07
2019-03-31T00:42:10.100Z,75.03
2019-03-31T00:47:12.130Z,64.57
2019-03-31T00:52:14.160Z,66.90
2019-03-31T00:57:16.169Z,62.10
2019-03-31T01:02:21.728Z,62.57
2019-03-31T01:07:25.231Z,73.43
2019-03-31T01:12:27.907Z,69.37
2019-03-31T01:17:30.104Z,63.93
2019-03-31T01:22:32.398Z,66.13
2019-03-31T01:27:34.396Z,73.13
2019-03-31T01:32:36.655Z,66.37
2019-03-31T01:37:38.851Z,72.10
2019-03-31T01:42:40.848Z,71.33
2019-03-31T01:47:42.859Z,69.10
2019-03-31T01:52:44.900Z,64.93
2019-03-31T01:57:46.907Z,67.10
2019-03-31T02:02:49.012Z,70.73
2019-03-31T02:07:51.010Z,70.17
2019-03-31T02:12:53.026Z,72.10
2019-03-31T02:17:55.123Z,73.00
2019-03-31T02:22:57.194Z,66.80
2019-03-31T02:27:59.276Z,71.57
2019-03-31T02:33:01.367Z,68.20
2019-03-31T02:38:03.445Z,67.00
2019-03-31T02:43:05.568Z,67.27
2019-03-31T02:48:07.610Z,66.53
2019-03-31T02:53:09.697Z,70.63
2019-03-31T02:58:12.311Z,68.57
2019-03-31T03:03:14.789Z,72.00
2019-03-31T03:08:20.735Z,61.37
2019-03-31T03:13:23.439Z,68.43
2019-03-31T03:18:25.556Z,68.37
2019-03-31T03:23:27.553Z,65.93
2019-03-31T03:28:29.618Z,63.27
2019-03-31T03:33:31.721Z,59.90
2019-03-31T03:38:33.777Z,62.00
2019-03-31T03:43:53.498Z,63.93
2019-03-31T03:48:39.702Z,62.90
2019-03-31T03:53:41.773Z,62.07
2019-03-31T03:58:43.865Z,56.47
2019-03-31T04:03:45.855Z,57.93
2019-03-31T04:08:48.337Z,60.53
2019-03-31T04:13:50.425Z,59.97
2019-03-31T04:18:52.490Z,54.37
2019-03-31T04:23:54.704Z,60.73
2019-03-31T04:28:56.772Z,56.27
2019-03-31T04:33:58.783Z,61.77
2019-03-31T04:39:01.024Z,60.90
2019-03-31T04:44:03.234Z,63.80
2019-03-31T04:49:05.302Z,59.40
2019-03-31T04:54:07.322Z,65.33
2019-03-31T04:59:09.337Z,55.97
2019-03-31T05:04:11.767Z,56.87
2019-03-31T05:09:13.850Z,60.13
2019-03-31T05:14:15.850Z,60.53
2019-03-31T05:19:17.863Z,62.50
2019-03-31T05:24:19.898Z,58.23
2019-03-31T05:29:21.970Z,59.97
2019-03-31T05:34:24.073Z,59.07
2019-03-31T05:39:26.078Z,58.87
2019-03-31T05:44:28.126Z,49.30
2019-03-31T05:49:30.114Z,51.87
2019-03-31T05:54:32.294Z,55.00
2019-03-31T05:59:34.330Z,54.13
2019-03-31T06:04:36.363Z,49.53
2019-03-31T06:09:38.355Z,46.23
2019-03-31T06:14:40.425Z,52.53
2019-03-31T06:19:42.421Z,54.00
2019-03-31T06:24:44.556Z,47.03
2019-03-31T06:29:46.549Z,49.63
2019-03-31T06:34:48.589Z,47.80
2019-03-31T06:39:50.570Z,52.47
2019-03-31T06:44:52.612Z,52.50
2019-03-31T06:49:54.628Z,48.30
2019-03-31T06:54:56.685Z,43.77
2019-03-31T06:59:58.691Z,50.30
2019-03-31T07:05:01.777Z,46.20
2019-03-31T07:10:04.669Z,44.47
2019-03-31T07:15:07.993Z,44.70
2019-03-31T07:20:10.981Z,48.13
2019-03-31T07:25:13.362Z,47.93
2019-03-31T07:30:15.912Z,47.20
2019-03-31T07:35:18.995Z,42.90
2019-03-31T07:40:21.844Z,46.80
2019-03-31T07:45:24.088Z,42.07
2019-03-31T07:50:28.311Z,41.50
2019-03-31T07:55:29.994Z,45.00
2019-03-31T08:00:32.002Z,42.57
2019-03-31T08:05:37.570Z,36.10
2019-03-31T08:10:37.887Z,35.43
2019-03-31T08:15:39.971Z,34.97
2019-03-31T08:20:42.054Z,40.10
2019-03-31T08:25:44.125Z,38.43
2019-03-31T08:30:46.789Z,34.30
2019-03-31T08:35:48.809Z,34.07
2019-03-31T08:40:50.818Z,34.20
2019-03-31T08:45:52.830Z,20.67
2019-03-31T08:50:54.866Z,27.53
2019-03-31T08:55:56.887Z,29.20
2019-03-31T09:01:03.789Z,38.40
2019-03-31T09:06:05.793Z,36.93
2019-03-31T09:11:10.589Z,35.50
2019-03-31T09:16:12.593Z,33.53
2019-03-31T09:21:14.593Z,34.17
2019-03-31T09:26:16.731Z,38.33
2019-03-31T09:31:18.912Z,37.80
2019-03-31T09:36:20.956Z,40.37
2019-03-31T09:41:23.013Z,37.00
2019-03-31T09:46:25.113Z,36.63
2019-03-31T09:51:27.175Z,39.37
2019-03-31T09:56:29.143Z,34.53
2019-03-31T10:01:31.209Z,28.00
2019-03-31T10:06:33.413Z,36.23
2019-03-31T10:11:35.454Z,37.23
2019-03-31T10:16:37.474Z,37.93
2019-03-31T10:21:39.549Z,28.20
2019-03-31T10:26:41.553Z,33.17
2019-03-31T10:31:43.614Z,30.67
2019-03-31T10:36:45.684Z,36.83
2019-03-31T10:41:47.761Z,28.23
2019-03-31T10:46:49.973Z,28.47
2019-03-31T10:51:52.032Z,28.43
2019-03-31T10:56:54.137Z,30.83
2019-03-31T11:01:56.241Z,32.97
2019-03-31T11:07:00.482Z,10.60
2019-03-31T11:12:02.120Z,28.97
2019-03-31T11:17:04.141Z,33.93
2019-03-31T11:22:19.977Z,29.40
2019-03-31T11:27:22.346Z,32.10
2019-03-31T11:32:24.376Z,36.87
2019-03-31T11:37:26.381Z,33.97
2019-03-31T11:42:28.493Z,32.97
2019-03-31T11:47:30.484Z,36.17
2019-03-31T11:52:32.520Z,38.60
2019-03-31T11:57:34.538Z,36.30
2019-03-31T12:02:36.785Z,28.90
2019-03-31T12:07:46.498Z,34.93
2019-03-31T12:12:42.686Z,36.90
2019-03-31T12:17:44.696Z,39.67
2019-03-31T12:22:46.749Z,39.23
2019-03-31T12:27:48.754Z,36.40
2019-03-31T12:32:50.821Z,34.47
2019-03-31T12:37:52.823Z,40.30
2019-03-31T12:42:54.889Z,31.90
2019-03-31T12:47:56.913Z,32.20
2019-03-31T12:52:59.137Z,31.23
2019-03-31T12:58:01.156Z,35.90
2019-03-31T13:03:03.213Z,32.67
2019-03-31T13:08:05.210Z,32.37
2019-03-31T13:13:07.200Z,28.43
2019-03-31T13:18:09.219Z,31.43
2019-03-31T13:23:11.275Z,36.63
2019-03-31T13:28:13.290Z,36.43
2019-03-31T13:33:15.292Z,34.47
2019-03-31T13:38:17.444Z,38.50
2019-03-31T13:43:19.425Z,31.23
2019-03-31T13:48:21.427Z,27.90
2019-03-31T13:53:23.421Z,27.57
2019-03-31T13:58:26.032Z,27.50
2019-03-31T14:03:28.573Z,23.33
2019-03-31T14:08:30.601Z,19.40
2019-03-31T14:13:32.593Z,21.17
2019-03-31T14:18:34.696Z,18.70
2019-03-31T14:23:36.705Z,12.77
2019-03-31T14:28:38.745Z,18.40
2019-03-31T14:33:40.774Z,22.17
2019-03-31T14:38:42.873Z,16.77
2019-03-31T14:43:44.878Z,23.03
2019-03-31T14:48:46.979Z,18.33
2019-03-31T14:53:48.981Z,17.00
2019-03-31T14:58:51.059Z,14.47
2019-03-31T15:03:53.059Z,15.37
2019-03-31T15:08:55.101Z,9.10
2019-03-31T15:13:57.113Z,14.57
2019-03-31T15:18:59.207Z,19.80
2019-03-31T15:24:01.205Z,8.70
2019-03-31T15:29:03.389Z,13.07
2019-03-31T15:34:05.381Z,11.73
2019-03-31T15:39:09.072Z,9.40
2019-03-31T15:44:11.333Z,9.67
2019-03-31T15:49:13.429Z,13.90
2019-03-31T15:54:15.417Z,11.70
2019-03-31T15:59:17.479Z,8.63
2019-03-31T16:04:19.561Z,5.57
2019-03-31T16:09:23.671Z,6.83
2019-03-31T16:14:24.905Z,4.87
2019-03-31T16:19:26.677Z,7.70
2019-03-31T16:24:37.819Z,7.03
2019-03-31T16:29:39.641Z,5.10
2019-03-31T16:34:41.365Z,8.37
2019-03-31T16:39:43.205Z,4.53
2019-03-31T16:44:57.661Z,6.20
2019-03-31T16:49:48.493Z,5.57
2019-03-31T16:54:50.209Z,5.93
2019-03-31T16:59:52.036Z,5.30
2019-03-31T17:04:53.772Z,6.97
2019-03-31T17:09:55.599Z,6.23
2019-03-31T17:14:57.317Z,6.77
2019-03-31T17:19:59.104Z,7.67
2019-03-31T17:25:00.834Z,5.87
2019-03-31T17:30:03.554Z,8.23
2019-03-31T17:35:05.395Z,12.13
2019-03-31T17:40:07.387Z,8.60
2019-03-31T17:45:09.093Z,8.80
2019-03-31T17:50:10.821Z,8.70
2019-03-31T17:55:12.711Z,6.90
2019-03-31T18:00:14.455Z,6.97
2019-03-31T18:05:16.202Z,9.37
2019-03-31T18:10:21.122Z,7.70
2019-03-31T18:15:21.436Z,8.97
2019-03-31T18:20:23.162Z,12.77
2019-03-31T18:25:24.904Z,12.03
2019-03-31T18:30:26.624Z,11.67
2019-03-31T18:35:28.458Z,12.90
2019-03-31T18:40:35.138Z,10.27
2019-03-31T18:45:33.766Z,8.17
2019-03-31T18:50:35.583Z,7.63
2019-03-31T18:55:46.870Z,9.70
2019-03-31T19:01:20.446Z,11.73
2019-03-31T19:06:47.367Z,6.40
2019-03-31T19:12:06.061Z,86.97
2019-03-31T19:17:26.103Z,8.27
2019-03-31T19:22:50.453Z,14.47
2019-03-31T19:28:15.675Z,9.53
2019-03-31T19:33:42.787Z,7.03
2019-03-31T19:39:10.069Z,8.27
2019-03-31T19:44:43.600Z,11.80
2019-03-31T19:50:02.511Z,13.53
2019-03-31T19:55:35.930Z,11.17
2019-03-31T20:00:54.628Z,14.43
2019-03-31T20:06:17.798Z,15.43
2019-03-31T20:11:39.441Z,12.30
2019-03-31T20:17:00.646Z,7.20
2019-03-31T20:22:40.510Z,19.80
2019-03-31T20:27:51.856Z,14.93
2019-03-31T20:33:15.777Z,7.23
2019-03-31T20:38:26.552Z,10.97
2019-03-31T20:43:48.408Z,6.10
2019-03-31T20:48:50.418Z,9.20
2019-03-31T20:53:52.200Z,10.80
2019-03-31T20:58:53.957Z,7.57
2019-03-31T21:03:55.765Z,6.00
2019-03-31T21:08:57.645Z,7.37
2019-03-31T21:13:59.389Z,7.37
2019-03-31T21:19:01.183Z,7.73
2019-03-31T21:24:02.939Z,6.53
2019-03-31T21:29:04.730Z,8.37
2019-03-31T21:34:06.494Z,8.87
2019-03-31T21:39:08.273Z,6.77
2019-03-31T21:44:10.013Z,5.67
2019-03-31T21:49:11.725Z,8.80
2019-03-31T21:54:13.453Z,8.87
2019-03-31T21:59:15.286Z,8.40
2019-03-31T22:04:17.025Z,9.67
2019-03-31T22:09:18.827Z,9.73
2019-03-31T22:14:20.548Z,9.00
2019-03-31T22:19:22.382Z,10.67
2019-03-31T22:24:24.094Z,9.50
2019-03-31T22:29:25.834Z,10.03
2019-03-31T22:34:27.604Z,9.40
2019-03-31T22:39:29.377Z,9.30
2019-03-31T22:44:31.092Z,8.63
2019-03-31T22:49:32.828Z,7.07
2019-03-31T22:54:34.548Z,8.10
2019-03-31T22:59:36.274Z,10.77
2019-03-31T23:04:38.064Z,11.13
2019-03-31T23:09:39.800Z,10.40
2019-03-31T23:14:41.621Z,8.13
2019-03-31T23:19:43.346Z,10.50
2019-03-31T23:24:45.173Z,11.87
2019-03-31T23:29:46.899Z,13.40
2019-03-31T23:34:48.728Z,12.93
2019-03-31T23:39:50.454Z,11.30
2019-03-31T23:44:52.282Z,9.40
2019-03-31T23:49:54.001Z,12.70
2019-03-31T23:54:55.826Z,10.73
2019-03-31T23:59:57.605Z,10.53
